createdAt,value
2023-03-29T00:02:01.954Z,3.00
2023-03-29T00:04:28.827Z,3.20
2023-03-29T00:06:55.885Z,2.60
2023-03-29T00:09:23.299Z,2.70
2023-03-29T00:11:49.923Z,3.20
2023-03-29T00:14:16.600Z,2.70
2023-03-29T00:16:44.875Z,2.47
2023-03-29T00:19:11.676Z,2.73
2023-03-29T00:21:38.300Z,2.80
2023-03-29T00:24:05.406Z,2.57
2023-03-29T00:26:32.098Z,3.43
2023-03-29T00:28:58.908Z,2.47
2023-03-29T00:31:26.436Z,2.20
2023-03-29T00:33:53.125Z,2.70
2023-03-29T00:36:19.769Z,2.50
2023-03-29T00:38:46.673Z,3.03
2023-03-29T00:41:13.428Z,2.40
2023-03-29T00:43:55.340Z,2.93
2023-03-29T00:46:22.687Z,3.00
2023-03-29T00:48:52.198Z,2.70
2023-03-29T00:51:21.635Z,2.93
2023-03-29T00:53:53.070Z,2.20
2023-03-29T00:56:31.328Z,3.00
2023-03-29T00:59:02.337Z,2.90
2023-03-29T01:01:35.457Z,2.60
2023-03-29T01:04:08.415Z,3.03
2023-03-29T01:06:39.492Z,2.40
2023-03-29T01:09:10.287Z,2.77
2023-03-29T01:11:55.667Z,2.47
2023-03-29T01:14:31.195Z,3.07
2023-03-29T01:16:57.903Z,2.77
2023-03-29T01:19:29.465Z,2.27
2023-03-29T01:22:25.936Z,3.80
2023-03-29T01:25:03.091Z,2.40
2023-03-29T01:27:56.168Z,2.70
2023-03-29T01:30:42.122Z,3.37
2023-03-29T01:33:15.214Z,2.80
2023-03-29T01:35:48.283Z,3.00
2023-03-29T01:38:30.558Z,3.50
2023-03-29T01:40:57.341Z,2.70
2023-03-29T01:43:49.847Z,2.50
2023-03-29T01:46:43.110Z,2.90
2023-03-29T01:49:22.682Z,5.37
2023-03-29T01:52:31.880Z,2.30
2023-03-29T01:55:05.420Z,2.47
2023-03-29T01:57:33.451Z,2.50
2023-03-29T02:00:07.170Z,2.63
2023-03-29T02:02:34.582Z,2.87
2023-03-29T02:05:01.512Z,2.30
2023-03-29T02:07:37.211Z,2.40
2023-03-29T02:10:06.980Z,2.00
2023-03-29T02:12:33.963Z,1.70
2023-03-29T02:15:06.942Z,2.20
2023-03-29T02:17:33.610Z,1.90
2023-03-29T02:20:00.768Z,3.10
2023-03-29T02:22:42.078Z,2.20
2023-03-29T02:25:09.458Z,2.30
2023-03-29T02:27:37.806Z,2.13
2023-03-29T02:30:06.782Z,2.60
2023-03-29T02:32:51.865Z,2.23
2023-03-29T02:35:34.154Z,2.53
2023-03-29T02:38:04.479Z,2.37
2023-03-29T02:40:33.199Z,2.50
2023-03-29T02:43:01.705Z,2.60
2023-03-29T02:45:28.963Z,3.50
2023-03-29T02:48:00.472Z,2.53
2023-03-29T02:50:31.187Z,2.57
2023-03-29T02:53:01.705Z,2.57
2023-03-29T02:55:34.959Z,2.57
2023-03-29T02:58:08.029Z,2.30
2023-03-29T03:00:38.230Z,2.33
2023-03-29T03:03:07.792Z,2.70
2023-03-29T03:05:35.037Z,2.53
2023-03-29T03:08:02.680Z,1.90
2023-03-29T03:10:29.313Z,2.43
2023-03-29T03:12:56.002Z,2.13
2023-03-29T03:15:22.621Z,2.47
2023-03-29T03:17:49.309Z,1.83
2023-03-29T03:20:17.078Z,2.20
2023-03-29T03:22:49.121Z,2.60
2023-03-29T03:25:21.077Z,2.63
2023-03-29T03:27:49.048Z,2.60
2023-03-29T03:30:16.698Z,2.87
2023-03-29T03:32:44.683Z,2.40
2023-03-29T03:35:11.739Z,2.40
2023-03-29T03:37:39.499Z,2.60
2023-03-29T03:40:12.078Z,2.07
2023-03-29T03:42:42.155Z,2.40
2023-03-29T03:45:10.588Z,2.53
2023-03-29T03:47:37.806Z,2.33
2023-03-29T03:50:06.598Z,2.60
2023-03-29T03:52:33.269Z,2.60
2023-03-29T03:54:59.975Z,2.23
2023-03-29T03:57:26.664Z,2.57
2023-03-29T03:59:53.342Z,2.50
2023-03-29T04:02:20.660Z,2.90
2023-03-29T04:04:47.628Z,2.30
2023-03-29T04:07:14.448Z,2.23
2023-03-29T04:09:41.109Z,2.20
2023-03-29T04:12:07.787Z,2.67
2023-03-29T04:14:35.588Z,2.17
2023-03-29T04:17:02.167Z,3.13
2023-03-29T04:19:28.767Z,2.93
2023-03-29T04:21:55.404Z,2.50
2023-03-29T04:24:24.105Z,3.50
2023-03-29T04:26:50.749Z,2.67
2023-03-29T04:29:17.517Z,3.00
2023-03-29T04:31:44.240Z,2.17
2023-03-29T04:34:10.981Z,2.40
2023-03-29T04:36:37.676Z,2.00
2023-03-29T04:39:04.488Z,3.33
2023-03-29T04:41:32.570Z,2.90
2023-03-29T04:43:59.215Z,2.80
2023-03-29T04:46:26.765Z,2.63
2023-03-29T04:48:54.046Z,5.30
2023-03-29T04:51:22.241Z,3.33
2023-03-29T04:53:50.237Z,5.07
2023-03-29T04:56:17.458Z,3.90
2023-03-29T04:58:44.495Z,4.53
2023-03-29T05:01:11.477Z,4.13
2023-03-29T05:03:38.383Z,3.70
2023-03-29T05:06:07.569Z,3.63
2023-03-29T05:08:38.880Z,4.10
2023-03-29T05:11:07.377Z,3.90
2023-03-29T05:13:34.943Z,4.87
2023-03-29T05:16:02.436Z,4.07
2023-03-29T05:18:29.849Z,4.80
2023-03-29T05:20:56.919Z,5.03
2023-03-29T05:23:24.075Z,5.13
2023-03-29T05:25:52.880Z,4.43
2023-03-29T05:28:19.525Z,5.03
2023-03-29T05:30:47.500Z,4.90
2023-03-29T05:33:14.129Z,5.07
2023-03-29T05:35:40.785Z,4.53
2023-03-29T05:38:07.505Z,5.80
2023-03-29T05:40:35.768Z,4.90
2023-03-29T05:43:02.830Z,4.67
2023-03-29T05:45:30.154Z,6.10
2023-03-29T05:47:57.689Z,5.00
2023-03-29T05:50:24.790Z,5.53
2023-03-29T05:52:51.594Z,5.40
2023-03-29T05:55:18.471Z,5.50
2023-03-29T05:57:45.132Z,5.30
2023-03-29T06:00:23.818Z,5.37
2023-03-29T06:02:52.557Z,4.80
2023-03-29T06:05:20.185Z,5.83
2023-03-29T06:07:48.676Z,6.17
2023-03-29T06:10:15.806Z,4.47
2023-03-29T06:12:42.496Z,5.47
2023-03-29T06:15:10.169Z,5.57
2023-03-29T06:17:37.060Z,5.77
2023-03-29T06:20:08.680Z,6.23
2023-03-29T06:22:35.313Z,6.30
2023-03-29T06:25:02.454Z,6.00
2023-03-29T06:27:29.109Z,6.03
2023-03-29T06:29:55.748Z,5.70
2023-03-29T06:32:23.310Z,7.63
2023-03-29T06:34:50.828Z,6.10
2023-03-29T06:37:17.792Z,5.70
2023-03-29T06:39:44.404Z,6.70
2023-03-29T06:42:20.770Z,5.93
2023-03-29T06:44:49.581Z,6.53
2023-03-29T06:47:17.402Z,6.13
2023-03-29T06:49:44.608Z,6.67
2023-03-29T06:52:11.365Z,7.10
2023-03-29T06:54:38.818Z,6.00
2023-03-29T06:57:05.566Z,5.43
2023-03-29T06:59:32.311Z,6.37
2023-03-29T07:01:59.654Z,5.87
2023-03-29T07:04:26.575Z,5.90
2023-03-29T07:07:01.491Z,7.30
2023-03-29T07:09:32.219Z,5.60
2023-03-29T07:11:59.845Z,6.30
2023-03-29T07:14:29.931Z,6.57
2023-03-29T07:16:58.340Z,6.20
2023-03-29T07:19:27.273Z,4.97
2023-03-29T07:21:54.301Z,5.60
2023-03-29T07:24:21.580Z,7.20
2023-03-29T07:27:00.059Z,5.33
2023-03-29T07:29:30.486Z,4.90
2023-03-29T07:31:57.293Z,7.03
2023-03-29T07:34:24.392Z,5.77
2023-03-29T07:36:51.587Z,5.10
2023-03-29T07:39:18.339Z,5.90
2023-03-29T07:41:44.997Z,6.03
2023-03-29T07:44:11.732Z,5.53
2023-03-29T07:46:38.412Z,5.97
2023-03-29T07:49:05.518Z,5.20
2023-03-29T07:51:32.218Z,5.60
2023-03-29T07:53:59.788Z,5.20
2023-03-29T07:56:26.989Z,9.77
2023-03-29T07:58:53.590Z,5.33
2023-03-29T08:01:20.420Z,7.93
2023-03-29T08:03:47.282Z,7.93
2023-03-29T08:06:16.068Z,6.93
2023-03-29T08:08:42.720Z,5.53
2023-03-29T08:11:10.016Z,6.20
2023-03-29T08:13:37.321Z,5.23
2023-03-29T08:16:05.856Z,5.70
2023-03-29T08:18:34.716Z,5.30
2023-03-29T08:21:02.026Z,7.13
2023-03-29T08:23:28.974Z,6.10
2023-03-29T08:25:55.617Z,5.93
2023-03-29T08:28:22.333Z,5.47
2023-03-29T08:30:49.653Z,6.60
2023-03-29T08:33:16.855Z,5.40
2023-03-29T08:35:43.793Z,5.60
2023-03-29T08:38:11.136Z,6.23
2023-03-29T08:40:37.932Z,5.93
2023-03-29T08:43:20.612Z,4.77
2023-03-29T08:46:01.582Z,4.37
2023-03-29T08:48:38.902Z,5.10
2023-03-29T08:51:17.258Z,3.40
2023-03-29T08:53:50.103Z,3.20
2023-03-29T08:56:34.239Z,3.87
2023-03-29T08:59:01.570Z,5.50
2023-03-29T09:01:34.078Z,4.03
2023-03-29T09:04:11.300Z,4.20
2023-03-29T09:06:40.062Z,4.30
2023-03-29T09:09:14.321Z,3.33
2023-03-29T09:11:56.515Z,3.97
2023-03-29T09:14:46.250Z,3.73
2023-03-29T09:17:49.909Z,3.63
2023-03-29T09:20:32.046Z,4.13
2023-03-29T09:23:01.634Z,3.30
2023-03-29T09:25:53.210Z,3.37
2023-03-29T09:28:34.820Z,3.87
2023-03-29T09:31:29.420Z,4.10
2023-03-29T09:34:04.350Z,4.00
2023-03-29T09:36:52.504Z,3.43
2023-03-29T09:39:23.129Z,4.17
2023-03-29T09:42:01.566Z,3.93
2023-03-29T09:44:35.839Z,3.60
2023-03-29T09:47:08.483Z,4.07
2023-03-29T09:49:40.133Z,3.30
2023-03-29T09:52:13.142Z,4.03
2023-03-29T09:54:40.311Z,3.93
2023-03-29T09:57:11.516Z,3.53
2023-03-29T09:59:38.178Z,3.90
2023-03-29T10:02:11.049Z,4.27
2023-03-29T10:04:38.582Z,4.90
2023-03-29T10:07:14.423Z,4.70
2023-03-29T10:09:44.722Z,3.50
2023-03-29T10:12:12.533Z,4.63
2023-03-29T10:14:46.428Z,4.23
2023-03-29T10:17:28.075Z,3.80
2023-03-29T10:20:03.733Z,3.90
2023-03-29T10:22:37.608Z,4.37
2023-03-29T10:25:09.436Z,4.20
2023-03-29T10:27:36.284Z,4.30
2023-03-29T10:30:12.854Z,4.20
2023-03-29T10:32:40.461Z,4.93
2023-03-29T10:35:14.887Z,4.43
2023-03-29T10:37:43.437Z,4.43
2023-03-29T10:40:34.779Z,4.53
2023-03-29T10:43:12.287Z,4.23
2023-03-29T10:45:41.052Z,4.50
2023-03-29T10:48:12.883Z,3.97
2023-03-29T10:50:39.674Z,4.87
2023-03-29T10:53:15.293Z,4.33
2023-03-29T10:56:03.012Z,4.93
2023-03-29T10:58:59.980Z,4.70
2023-03-29T11:01:46.147Z,4.60
2023-03-29T11:04:29.439Z,5.10
2023-03-29T11:07:22.604Z,3.10
2023-03-29T11:10:00.289Z,5.50
2023-03-29T11:12:38.851Z,6.27
2023-03-29T11:15:08.888Z,4.37
2023-03-29T11:17:35.784Z,5.27
2023-03-29T11:20:31.106Z,5.03
2023-03-29T11:23:20.653Z,5.17
2023-03-29T11:26:18.433Z,5.50
2023-03-29T11:28:55.535Z,5.60
2023-03-29T11:31:37.197Z,4.97
2023-03-29T11:34:22.024Z,5.20
2023-03-29T11:37:08.684Z,4.33
2023-03-29T11:39:49.849Z,4.60
2023-03-29T11:42:32.146Z,5.87
2023-03-29T11:45:01.945Z,6.00
2023-03-29T11:47:33.382Z,5.90
2023-03-29T11:50:03.487Z,6.00
2023-03-29T11:52:32.383Z,5.90
2023-03-29T11:55:03.842Z,5.90
2023-03-29T11:57:53.909Z,5.10
2023-03-29T12:00:27.421Z,5.80
2023-03-29T12:03:03.360Z,5.80
2023-03-29T12:05:39.622Z,5.97
2023-03-29T12:08:30.643Z,6.10
2023-03-29T12:11:07.194Z,6.50
2023-03-29T12:13:40.111Z,6.60
2023-03-29T12:16:23.021Z,6.30
2023-03-29T12:18:54.745Z,7.00
2023-03-29T12:21:23.032Z,6.00
2023-03-29T12:23:51.837Z,6.10
2023-03-29T12:26:46.609Z,6.10
2023-03-29T12:29:19.057Z,7.60
2023-03-29T12:32:03.733Z,8.10
2023-03-29T12:35:02.516Z,6.10
2023-03-29T12:37:38.044Z,6.97
2023-03-29T12:40:14.704Z,7.07
2023-03-29T12:43:08.800Z,6.70
2023-03-29T12:45:43.391Z,6.83
2023-03-29T12:48:22.331Z,7.47
2023-03-29T12:50:50.786Z,7.57
2023-03-29T12:53:28.530Z,6.30
2023-03-29T12:56:04.140Z,6.77
2023-03-29T12:58:39.600Z,6.50
2023-03-29T13:01:10.551Z,7.00
2023-03-29T13:03:42.730Z,8.20
2023-03-29T13:06:10.841Z,6.67
2023-03-29T13:08:41.040Z,7.40
2023-03-29T13:11:13.431Z,7.20
2023-03-29T13:13:41.489Z,6.83
2023-03-29T13:16:17.086Z,6.87
2023-03-29T13:19:02.649Z,7.00
2023-03-29T13:21:48.273Z,6.07
2023-03-29T13:24:35.734Z,6.80
2023-03-29T13:27:28.174Z,6.50
2023-03-29T13:30:15.539Z,7.10
2023-03-29T13:32:49.008Z,7.80
2023-03-29T13:35:41.325Z,6.80
2023-03-29T13:38:20.210Z,6.53
2023-03-29T13:40:57.683Z,6.03
2023-03-29T13:43:35.049Z,7.27
2023-03-29T13:46:01.989Z,7.43
2023-03-29T13:48:37.779Z,7.53
2023-03-29T13:51:13.559Z,6.63
2023-03-29T13:53:52.852Z,6.10
2023-03-29T13:56:24.738Z,6.80
2023-03-29T13:59:05.578Z,7.30
2023-03-29T14:01:48.314Z,6.80
2023-03-29T14:04:21.785Z,6.50
2023-03-29T14:06:53.048Z,7.73
2023-03-29T14:09:23.334Z,6.63
2023-03-29T14:11:51.043Z,6.80
2023-03-29T14:14:24.116Z,6.87
2023-03-29T14:16:51.132Z,6.90
2023-03-29T14:19:24.725Z,8.00
2023-03-29T14:21:53.136Z,6.93
2023-03-29T14:24:27.104Z,6.90
2023-03-29T14:26:54.633Z,6.23
2023-03-29T14:29:23.491Z,6.07
2023-03-29T14:31:51.936Z,7.10
2023-03-29T14:34:19.198Z,7.40
2023-03-29T14:36:48.815Z,9.10
2023-03-29T14:39:18.347Z,7.57
2023-03-29T14:41:57.028Z,7.20
2023-03-29T14:44:27.984Z,6.60
2023-03-29T14:46:55.975Z,6.70
2023-03-29T14:49:23.489Z,6.20
2023-03-29T14:51:52.180Z,7.83
2023-03-29T14:54:32.645Z,6.87
2023-03-29T14:57:03.420Z,7.00
2023-03-29T14:59:38.507Z,6.77
2023-03-29T15:02:29.518Z,6.93
2023-03-29T15:05:23.202Z,7.70
2023-03-29T15:07:55.837Z,6.90
2023-03-29T15:10:22.736Z,7.70
2023-03-29T15:12:50.986Z,6.93
2023-03-29T15:15:18.536Z,8.70
2023-03-29T15:17:51.694Z,7.50
2023-03-29T15:20:29.245Z,8.37
2023-03-29T15:23:13.133Z,7.83
2023-03-29T15:25:50.674Z,7.20
2023-03-29T15:28:34.602Z,8.20
2023-03-29T15:31:12.997Z,8.07
2023-03-29T15:33:41.655Z,8.10
2023-03-29T15:36:10.835Z,8.60
2023-03-29T15:38:44.123Z,8.73
2023-03-29T15:41:13.539Z,8.57
2023-03-29T15:43:41.198Z,7.53
2023-03-29T15:46:08.286Z,7.83
2023-03-29T15:48:35.194Z,7.97
2023-03-29T15:51:05.469Z,8.63
2023-03-29T15:53:33.244Z,9.13
2023-03-29T15:56:02.137Z,9.13
2023-03-29T15:58:33.831Z,8.00
2023-03-29T16:01:33.861Z,9.50
2023-03-29T16:04:21.562Z,9.23
2023-03-29T16:06:52.783Z,8.73
2023-03-29T16:09:20.460Z,8.73
2023-03-29T16:11:47.961Z,8.63
2023-03-29T16:14:26.893Z,9.30
2023-03-29T16:17:00.619Z,8.30
2023-03-29T16:19:28.855Z,9.07
2023-03-29T16:21:56.680Z,8.53
2023-03-29T16:24:26.211Z,9.10
2023-03-29T16:26:55.632Z,9.23
2023-03-29T16:29:23.614Z,8.10
2023-03-29T16:31:51.074Z,9.20
2023-03-29T16:34:19.109Z,8.30
2023-03-29T16:36:46.429Z,8.60
2023-03-29T16:39:13.971Z,10.00
2023-03-29T16:41:41.652Z,8.90
2023-03-29T16:44:11.811Z,9.43
2023-03-29T16:46:38.502Z,8.60
2023-03-29T16:49:07.790Z,9.53
2023-03-29T16:51:34.429Z,9.17
2023-03-29T16:54:01.037Z,8.67
2023-03-29T16:56:28.376Z,11.03
2023-03-29T16:58:54.991Z,7.97
2023-03-29T17:01:22.678Z,9.50
2023-03-29T17:03:49.447Z,9.53
2023-03-29T17:06:16.438Z,9.80
2023-03-29T17:08:43.350Z,10.57
2023-03-29T17:11:11.404Z,9.77
2023-03-29T17:13:38.725Z,8.60
2023-03-29T17:16:05.957Z,10.30
2023-03-29T17:18:32.882Z,11.13
2023-03-29T17:20:59.941Z,10.30
2023-03-29T17:23:26.656Z,9.97
2023-03-29T17:25:55.234Z,9.90
2023-03-29T17:28:23.128Z,10.13
2023-03-29T17:30:49.916Z,11.63
2023-03-29T17:33:16.649Z,10.33
2023-03-29T17:35:44.392Z,12.00
2023-03-29T17:38:11.845Z,9.33
2023-03-29T17:40:39.208Z,10.33
2023-03-29T17:43:06.153Z,11.17
2023-03-29T17:45:33.058Z,11.90
2023-03-29T17:47:59.735Z,12.47
2023-03-29T17:50:26.417Z,10.50
2023-03-29T17:52:53.058Z,11.53
2023-03-29T17:55:20.958Z,12.17
2023-03-29T17:57:48.944Z,11.53
2023-03-29T18:00:16.750Z,11.77
2023-03-29T18:02:43.770Z,10.20
2023-03-29T18:05:10.777Z,12.80
2023-03-29T18:07:37.861Z,12.20
2023-03-29T18:10:05.147Z,11.80
2023-03-29T18:12:31.869Z,11.27
2023-03-29T18:14:58.821Z,10.40
2023-03-29T18:17:27.290Z,9.60
2023-03-29T18:19:54.372Z,10.57
2023-03-29T18:22:21.587Z,11.43
2023-03-29T18:24:49.199Z,10.73
2023-03-29T18:27:16.014Z,9.33
2023-03-29T18:29:43.972Z,10.63
2023-03-29T18:32:11.527Z,10.33
2023-03-29T18:34:39.284Z,11.37
2023-03-29T18:37:07.413Z,11.30
2023-03-29T18:39:34.612Z,11.70
2023-03-29T18:42:01.725Z,11.23
2023-03-29T18:44:28.707Z,10.10
2023-03-29T18:46:55.416Z,10.00
2023-03-29T18:49:22.046Z,10.63
2023-03-29T18:51:49.993Z,11.20
2023-03-29T18:54:17.754Z,10.40
2023-03-29T18:56:44.544Z,11.83
2023-03-29T18:59:11.378Z,10.67
2023-03-29T19:01:38.130Z,9.67
2023-03-29T19:04:04.962Z,9.47
2023-03-29T19:06:31.727Z,12.87
2023-03-29T19:09:01.854Z,11.03
2023-03-29T19:11:31.495Z,10.80
2023-03-29T19:13:58.131Z,10.90
2023-03-29T19:16:25.658Z,10.57
2023-03-29T19:18:52.518Z,10.67
2023-03-29T19:21:19.210Z,11.10
2023-03-29T19:23:46.206Z,10.73
2023-03-29T19:26:14.901Z,11.53
2023-03-29T19:28:41.524Z,11.67
2023-03-29T19:31:08.199Z,11.20
2023-03-29T19:33:34.987Z,13.00
2023-03-29T19:36:02.225Z,11.60
2023-03-29T19:38:29.187Z,11.53
2023-03-29T19:40:55.841Z,11.80
2023-03-29T19:43:22.536Z,12.20
2023-03-29T19:45:50.712Z,12.20
2023-03-29T19:48:23.471Z,11.07
2023-03-29T19:50:51.394Z,12.40
2023-03-29T19:53:18.161Z,13.93
2023-03-29T19:55:45.232Z,12.17
2023-03-29T19:58:12.360Z,12.93
2023-03-29T20:00:39.938Z,13.20
2023-03-29T20:03:10.449Z,15.00
2023-03-29T20:05:38.760Z,19.97
2023-03-29T20:08:06.432Z,17.87
2023-03-29T20:10:33.645Z,16.33
2023-03-29T20:13:00.512Z,15.17
2023-03-29T20:15:27.466Z,14.73
2023-03-29T20:17:59.364Z,14.80
2023-03-29T20:20:26.989Z,14.40
2023-03-29T20:22:58.103Z,14.80
2023-03-29T20:25:25.721Z,15.07
2023-03-29T20:27:52.982Z,16.00
2023-03-29T20:30:20.174Z,17.07
2023-03-29T20:32:46.992Z,14.47
2023-03-29T20:35:13.975Z,15.33
2023-03-29T20:37:40.737Z,13.60
2023-03-29T20:40:08.607Z,15.17
2023-03-29T20:42:36.705Z,17.27
2023-03-29T20:45:04.421Z,15.50
2023-03-29T20:47:31.154Z,15.70
2023-03-29T20:49:57.843Z,14.50
2023-03-29T20:52:25.005Z,14.13
2023-03-29T20:54:51.655Z,15.33
2023-03-29T20:57:20.835Z,16.20
2023-03-29T20:59:49.305Z,15.50
2023-03-29T21:02:21.457Z,16.20
2023-03-29T21:04:52.717Z,15.20
2023-03-29T21:07:21.251Z,14.90
2023-03-29T21:09:49.832Z,14.57
2023-03-29T21:12:16.842Z,15.27
2023-03-29T21:14:43.548Z,19.27
2023-03-29T21:17:10.355Z,16.07
2023-03-29T21:19:39.064Z,16.27
2023-03-29T21:22:06.111Z,14.47
2023-03-29T21:24:33.455Z,15.20
2023-03-29T21:27:00.575Z,15.93
2023-03-29T21:29:27.516Z,16.23
2023-03-29T21:31:54.754Z,14.97
2023-03-29T21:34:22.022Z,15.10
2023-03-29T21:36:48.628Z,14.27
2023-03-29T21:39:15.480Z,15.13
2023-03-29T21:41:42.139Z,14.93
2023-03-29T21:44:08.845Z,15.63
2023-03-29T21:46:35.544Z,15.30
2023-03-29T21:49:02.445Z,14.70
2023-03-29T21:51:29.124Z,18.60
2023-03-29T21:53:55.936Z,16.10
2023-03-29T21:56:23.138Z,17.43
2023-03-29T21:58:49.770Z,16.57
2023-03-29T22:01:16.679Z,16.73
2023-03-29T22:03:43.337Z,16.40
2023-03-29T22:06:13.270Z,17.13
2023-03-29T22:08:40.121Z,16.70
2023-03-29T22:11:10.792Z,16.63
2023-03-29T22:13:37.885Z,16.70
2023-03-29T22:16:05.699Z,15.20
2023-03-29T22:18:42.369Z,17.33
2023-03-29T22:21:37.260Z,15.07
2023-03-29T22:24:04.609Z,16.53
2023-03-29T22:26:32.891Z,17.97
2023-03-29T22:29:01.171Z,16.13
2023-03-29T22:31:29.127Z,16.53
2023-03-29T22:33:56.257Z,17.63
2023-03-29T22:36:30.669Z,16.20
2023-03-29T22:38:57.939Z,16.40
2023-03-29T22:41:27.632Z,16.80
2023-03-29T22:43:56.601Z,16.57
2023-03-29T22:46:24.218Z,19.43
2023-03-29T22:48:51.270Z,18.23
2023-03-29T22:51:18.180Z,16.27
2023-03-29T22:53:47.011Z,21.53
2023-03-29T22:56:15.544Z,19.00
2023-03-29T22:58:42.938Z,17.70
2023-03-29T23:01:09.896Z,18.17
2023-03-29T23:03:36.862Z,19.30
2023-03-29T23:06:04.163Z,17.87
2023-03-29T23:08:32.553Z,17.00
2023-03-29T23:10:59.850Z,17.00
2023-03-29T23:13:28.864Z,18.03
2023-03-29T23:15:58.739Z,19.37
2023-03-29T23:18:27.649Z,17.70
2023-03-29T23:20:56.594Z,20.37
2023-03-29T23:23:24.965Z,19.10
2023-03-29T23:25:53.024Z,17.30
2023-03-29T23:28:23.431Z,19.80
2023-03-29T23:31:02.417Z,17.80
2023-03-29T23:33:33.364Z,19.47
2023-03-29T23:36:03.718Z,18.03
2023-03-29T23:38:31.889Z,18.43
2023-03-29T23:41:01.985Z,18.50
2023-03-29T23:43:32.557Z,18.60
2023-03-29T23:46:01.511Z,18.50
2023-03-29T23:48:28.607Z,17.33
2023-03-29T23:50:59.913Z,18.40
2023-03-29T23:53:28.619Z,17.03
2023-03-29T23:56:04.046Z,17.60
2023-03-29T23:58:32.847Z,18.80
